Česky Dansk Deutsch English Español Suomi Français Magyar Italiano Nederlands norsk Polski Português svenska Türkçe

 

Het Weer

San Borja (Bolivië)

17:00, 30 juli 2016 (GMT)

NWNNE
WE
SWSSE
Home            
San Borja Reyes Rurrenabaque San Ignacio De Moxos Apolo Santa Ana Trinidad La Paz / Alto Cochabamba San Joaquin Magdalena Oruro Puerto Maldonado Juliaca Ascencion De Guarayos Charana Riberalta Cobija Guayaramerin Sucre San Javier Viru-Viru Tacna

Om een weerknop op uw website of weblog te plaatsen, copieer onderstaande code en plak die in uw pagina. In het eerste vakje staat HTML-code, in het tweede vakje UBB-code.


Add to Google

Details

Wind speed:2 bf, 6 kn, 3.1 m/s, 6.9 miles/h, 11.1 km/h
Wind direction:NW, 320°
Visibility: 5000 m, 5.0 km, 16404 ft, 3.1 miles
Clouds:Ein wenig bewölkt at 2000 ft, 610 m
Het Weer:moderate smoke
Temperature:33°C, 91°F
Gefühlte Temperatur:33°C, 92°F
Dew-point:17°C, 63°F
Atmospheric pressure:1014 hPa, 760.6 mmHg, 29.94 inHg, 1.001 atm
Relative humidity:38.5 %
METAR:SLSB 301700Z 32006KT 5000 FU FEW020 33/17 Q1014

Snelkoppelingen

Actuele weersinformatie van de hele wereld. Voeg locaties toe met het plus (+) symbool. Deze snelkoppelingen kunnen worden toegevoegd aan Google.

Lid van de Technetium groep

website free tracking
StatCounter NetStat W3C Validator

28-11-2020 11:31:24
astro.technetium.be money.technetium.be phote.technetium.be tafeltennistafel.technetium.be www.ligfiets.net